Time;durP1;ratioP1;P1;durP2;ratioP2;P2;SDS_P1;SDS_P2;PMS_P1;PMS_P2;Temp;Humidity;BMP_temperature;BMP_pressure;BME280_temperature;BME280_humidity;BME280_pressure;Samples;Min_cycle;Max_cycle;Signal;HPM_P1;HPM_P2
2022/10/02 00:01:11;;;;;;;1.45;0.50;;;21.50;57.40;;;;;;5052979;28;20021;-41
2022/10/02 00:03:40;;;;;;;1.50;0.63;;;21.50;57.40;;;;;;5050830;28;20833;-42
2022/10/02 00:06:13;;;;;;;1.50;0.65;;;21.50;57.40;;;;;;5064567;28;20042;-41
2022/10/02 00:08:40;;;;;;;1.70;0.77;;;21.40;57.30;;;;;;5048044;28;20885;-43
2022/10/02 00:11:05;;;;;;;1.27;0.70;;;21.50;57.40;;;;;;5062292;28;20505;-42
2022/10/02 00:13:41;;;;;;;1.63;0.50;;;21.40;57.30;;;;;;5050239;28;20104;-40
2022/10/02 00:16:28;;;;;;;3.10;0.90;;;21.40;57.40;;;;;;5062829;28;20098;-42
2022/10/02 00:18:56;;;;;;;2.17;0.95;;;21.40;57.30;;;;;;5056718;28;20025;-41
2022/10/02 00:21:42;;;;;;;1.73;0.70;;;21.40;57.30;;;;;;5062906;28;20028;-52
2022/10/02 00:24:13;;;;;;;1.20;0.50;;;21.40;57.30;;;;;;5050536;28;20041;-40
2022/10/02 00:26:48;;;;;;;1.63;0.85;;;21.40;57.30;;;;;;5052648;28;20028;-43
2022/10/02 00:29:23;;;;;;;2.42;0.80;;;21.40;57.30;;;;;;5050764;28;20121;-41
2022/10/02 00:32:30;;;;;;;3.17;0.80;;;21.40;57.30;;;;;;5057024;28;20025;-41
2022/10/02 00:35:18;;;;;;;5.68;1.75;;;21.40;57.30;;;;;;5045938;28;20029;-41
2022/10/02 00:37:54;;;;;;;2.08;0.93;;;21.40;57.30;;;;;;5041608;28;20043;-45
2022/10/02 00:40:39;;;;;;;1.25;0.68;;;21.30;57.30;;;;;;5052151;28;20628;-52
2022/10/02 00:43:14;;;;;;;1.17;0.70;;;21.40;57.30;;;;;;5048031;28;20048;-41
2022/10/02 00:45:45;;;;;;;1.95;0.50;;;21.40;57.30;;;;;;5057711;28;20040;-41
2022/10/02 00:48:41;;;;;;;2.90;0.75;;;21.30;57.30;;;;;;5058574;28;20381;-43
2022/10/02 00:51:12;;;;;;;1.70;0.60;;;21.40;58.00;;;;;;5050044;28;20041;-41
2022/10/02 00:54:19;;;;;;;1.42;0.68;;;21.30;57.30;;;;;;5059506;28;20057;-41
2022/10/02 00:57:13;;;;;;;2.05;0.50;;;21.30;57.30;;;;;;5036933;28;20045;-41
2022/10/02 01:00:06;;;;;;;2.72;0.80;;;21.30;57.30;;;;;;5053286;28;20105;-45
2022/10/02 01:02:51;;;;;;;1.92;0.60;;;21.30;57.30;;;;;;5043519;28;20041;-41
2022/10/02 01:05:17;;;;;;;2.50;0.75;;;21.30;57.30;;;;;;5049293;28;20500;-42
2022/10/02 01:07:47;;;;;;;1.00;0.60;;;21.30;57.30;;;;;;5055264;28;20041;-44
2022/10/02 01:10:13;;;;;;;2.83;0.60;;;21.30;57.90;;;;;;5053936;28;20112;-44
2022/10/02 01:12:39;;;;;;;0.80;0.55;;;21.30;57.30;;;;;;5053684;28;20083;-42
2022/10/02 01:15:13;;;;;;;2.40;0.60;;;21.30;57.30;;;;;;5054876;28;20041;-42
2022/10/02 01:17:39;;;;;;;2.33;0.75;;;21.30;57.20;;;;;;5051503;28;20618;-41
2022/10/02 01:20:11;;;;;;;1.63;0.55;;;21.30;57.30;;;;;;5052105;28;20033;-41
2022/10/02 01:23:04;;;;;;;4.47;0.70;;;21.30;57.30;;;;;;5056850;28;20040;-43
2022/10/02 01:25:29;;;;;;;2.25;0.73;;;21.30;57.20;;;;;;5047304;28;20299;-43
2022/10/02 01:27:55;;;;;;;1.92;0.50;;;21.30;57.30;;;;;;5054096;28;20036;-42
2022/10/02 01:30:21;;;;;;;2.83;0.45;;;21.30;57.30;;;;;;5052597;28;20466;-50
2022/10/02 01:32:56;;;;;;;2.25;1.17;;;21.30;57.30;;;;;;5054267;28;20021;-49
2022/10/02 01:35:25;;;;;;;1.02;0.38;;;21.30;57.30;;;;;;5048966;28;20025;-47
2022/10/02 01:37:53;;;;;;;2.10;0.70;;;21.30;57.30;;;;;;5063654;28;20029;-41
2022/10/02 01:40:28;;;;;;;0.80;0.50;;;21.30;57.30;;;;;;5055189;28;20025;-51
2022/10/02 01:42:57;;;;;;;0.77;0.45;;;21.30;57.30;;;;;;5049596;28;20103;-43
2022/10/02 01:45:45;;;;;;;1.30;0.47;;;21.30;57.30;;;;;;5052902;28;20040;-42
2022/10/02 01:48:26;;;;;;;2.10;0.77;;;21.30;57.30;;;;;;5050590;28;20128;-42
2022/10/02 01:51:19;;;;;;;2.75;0.50;;;21.30;57.30;;;;;;5051945;28;20469;-41
2022/10/02 01:53:52;;;;;;;0.82;0.50;;;21.30;57.30;;;;;;5061771;28;20021;-43
2022/10/02 01:56:29;;;;;;;1.05;0.50;;;21.30;57.30;;;;;;5055866;28;20033;-50
2022/10/02 01:59:16;;;;;;;2.72;0.68;;;21.30;57.40;;;;;;5052978;28;20055;-43
2022/10/02 02:01:52;;;;;;;1.00;0.70;;;21.30;57.30;;;;;;5049758;28;20029;-41
2022/10/02 02:04:27;;;;;;;1.48;0.52;;;21.30;57.30;;;;;;5034770;28;20405;-52
2022/10/02 02:07:08;;;;;;;2.08;0.70;;;21.30;57.30;;;;;;5060506;28;20029;-41
2022/10/02 02:09:42;;;;;;;2.17;0.52;;;21.30;57.30;;;;;;5054500;28;20107;-43
2022/10/02 02:12:17;;;;;;;1.17;0.45;;;21.30;57.30;;;;;;5054265;28;20048;-41
2022/10/02 02:15:02;;;;;;;1.50;0.88;;;21.30;57.30;;;;;;5051385;28;20126;-47
2022/10/02 02:17:46;;;;;;;1.55;0.55;;;21.30;57.30;;;;;;5052626;28;20112;-41
2022/10/02 02:20:17;;;;;;;1.60;0.50;;;21.30;57.30;;;;;;5053978;28;20083;-44
2022/10/02 02:22:47;;;;;;;1.20;0.50;;;21.30;57.30;;;;;;5050700;28;20033;-42
2022/10/02 02:25:23;;;;;;;1.65;0.52;;;21.30;57.30;;;;;;5052356;28;20120;-44
2022/10/02 02:27:54;;;;;;;2.08;0.80;;;21.30;57.30;;;;;;5045716;28;20055;-44
2022/10/02 02:30:21;;;;;;;1.95;0.40;;;21.20;57.20;;;;;;5063510;28;20060;-50
2022/10/02 02:32:59;;;;;;;2.22;0.52;;;21.20;57.30;;;;;;5060855;28;20115;-45
2022/10/02 02:35:28;;;;;;;0.75;0.30;;;21.30;57.30;;;;;;5057025;28;20052;-42
2022/10/02 02:37:58;;;;;;;1.35;0.50;;;21.20;57.20;;;;;;5060444;28;20496;-41
2022/10/02 02:40:28;;;;;;;0.80;0.40;;;21.20;57.20;;;;;;5053119;28;20036;-41
2022/10/02 02:43:07;;;;;;;1.35;0.43;;;21.20;57.20;;;;;;5050256;28;20029;-42
2022/10/02 02:45:55;;;;;;;1.00;0.50;;;21.20;57.30;;;;;;5052654;28;20048;-41
2022/10/02 02:48:28;;;;;;;1.38;0.70;;;21.20;57.30;;;;;;5058316;28;20096;-51
2022/10/02 02:50:59;;;;;;;1.40;0.50;;;21.20;57.30;;;;;;5049193;28;20078;-42
2022/10/02 02:53:41;;;;;;;1.65;0.60;;;21.20;57.30;;;;;;5058424;28;20443;-42
2022/10/02 02:56:08;;;;;;;;;;;21.20;57.20;;;;;;5056996;28;20446;-42
2022/10/02 02:58:44;;;;;;;1.85;0.68;;;21.20;57.30;;;;;;5052928;28;19909;-41
2022/10/02 03:01:09;;;;;;;1.52;0.77;;;21.20;57.30;;;;;;5056216;28;20046;-41
2022/10/02 03:03:35;;;;;;;2.00;0.68;;;21.20;57.20;;;;;;5050679;28;20033;-43
2022/10/02 03:06:13;;;;;;;2.53;0.70;;;21.20;57.30;;;;;;5052099;28;20045;-41
2022/10/02 03:08:39;;;;;;;1.42;0.65;;;21.20;57.30;;;;;;5053287;28;20118;-42
2022/10/02 03:11:13;;;;;;;0.80;0.40;;;21.20;57.30;;;;;;5050552;28;20084;-41
2022/10/02 03:14:00;;;;;;;2.55;1.02;;;21.20;57.30;;;;;;5051242;28;20591;-41
2022/10/02 03:16:45;;;;;;;3.50;0.50;;;21.20;57.40;;;;;;5061158;28;20033;-41
2022/10/02 03:19:36;;;;;;;1.48;0.60;;;21.30;57.50;;;;;;5046268;28;20032;-41
2022/10/02 03:22:15;;;;;;;1.33;0.43;;;21.20;57.40;;;;;;5052166;28;20049;-41
2022/10/02 03:24:55;;;;;;;1.02;0.50;;;21.20;57.40;;;;;;5058917;28;20029;-41
2022/10/02 03:27:48;;;;;;;0.75;0.45;;;21.20;57.40;;;;;;5056124;28;20025;-49
2022/10/02 03:30:19;;;;;;;2.08;0.60;;;21.20;57.40;;;;;;5057765;28;20024;-50
2022/10/02 03:32:46;;;;;;;2.03;0.50;;;21.20;57.40;;;;;;5051289;28;20075;-44
2022/10/02 03:35:13;;;;;;;1.67;0.63;;;21.20;58.10;;;;;;5051327;28;20064;-41
2022/10/02 03:37:46;;;;;;;1.42;0.77;;;21.20;57.40;;;;;;5052337;28;20049;-44
2022/10/02 03:40:12;;;;;;;2.83;0.70;;;21.20;57.40;;;;;;5052416;28;20021;-41
2022/10/02 03:42:39;;;;;;;2.33;0.60;;;21.20;57.50;;;;;;5045483;28;20201;-42
2022/10/02 03:45:05;;;;;;;2.20;0.60;;;21.20;57.40;;;;;;5049158;28;20055;-41
2022/10/02 03:47:31;;;;;;;1.05;0.75;;;21.20;57.40;;;;;;5052168;28;20108;-41
2022/10/02 03:49:57;;;;;;;1.58;0.85;;;21.20;57.50;;;;;;5050641;28;20101;-41
2022/10/02 03:52:23;;;;;;;3.50;1.17;;;21.20;57.50;;;;;;5045620;28;20036;-43
2022/10/02 03:54:56;;;;;;;2.10;0.60;;;21.20;57.50;;;;;;5051367;28;20433;-41
2022/10/02 03:57:23;;;;;;;1.75;0.40;;;21.20;57.50;;;;;;5058212;28;20029;-45
2022/10/02 03:59:59;;;;;;;1.48;0.50;;;21.20;57.50;;;;;;5053814;28;20061;-41
2022/10/02 04:02:46;;;;;;;2.38;0.57;;;21.20;57.40;;;;;;5038643;28;20508;-41
2022/10/02 04:05:50;;;;;;;1.92;0.55;;;21.20;57.50;;;;;;5044561;28;20040;-41
2022/10/02 04:08:17;;;;;;;2.22;0.85;;;21.20;57.50;;;;;;5008871;28;20450;-41
2022/10/02 04:11:02;;;;;;;0.80;0.47;;;21.20;57.50;;;;;;5051898;28;20029;-42
2022/10/02 04:13:36;;;;;;;2.58;0.50;;;21.20;57.50;;;;;;5049706;28;20440;-41
2022/10/02 04:16:23;;;;;;;3.10;0.80;;;21.20;57.50;;;;;;5055483;28;20386;-41
2022/10/02 04:18:57;;;;;;;1.80;0.93;;;21.20;57.50;;;;;;5053298;28;20087;-41
2022/10/02 04:21:41;;;;;;;1.00;0.52;;;21.20;57.50;;;;;;5059759;28;20025;-42
2022/10/02 04:24:16;;;;;;;1.58;0.63;;;21.20;57.50;;;;;;5055566;28;20028;-42
2022/10/02 04:26:55;;;;;;;3.90;1.33;;;21.20;57.50;;;;;;5061517;28;20061;-41
2022/10/02 04:29:25;;;;;;;2.15;0.50;;;21.20;57.40;;;;;;5051313;28;20118;-51
2022/10/02 04:32:15;;;;;;;2.03;0.68;;;21.20;57.40;;;;;;5055791;28;20028;-42
2022/10/02 04:34:41;;;;;;;2.08;0.80;;;21.20;57.40;;;;;;5053278;28;20481;-42
2022/10/02 04:37:09;;;;;;;3.42;0.90;;;21.10;57.50;;;;;;5054870;28;20029;-41
2022/10/02 04:39:54;;;;;;;2.05;0.60;;;21.20;57.50;;;;;;5054339;28;20033;-42
2022/10/02 04:42:40;;;;;;;1.48;0.70;;;21.20;57.40;;;;;;5047240;28;20373;-52
2022/10/02 04:45:22;;;;;;;1.58;0.60;;;21.20;57.40;;;;;;5054993;28;20044;-42
2022/10/02 04:48:09;;;;;;;1.67;0.43;;;21.20;57.40;;;;;;5055080;28;20021;-42
2022/10/02 04:50:42;;;;;;;0.93;0.40;;;21.10;57.40;;;;;;5050109;28;20032;-42
2022/10/02 04:53:26;;;;;;;4.20;1.52;;;21.20;57.40;;;;;;5050552;28;20096;-41
2022/10/02 04:56:18;;;;;;;1.85;0.63;;;21.10;57.40;;;;;;5055152;28;20037;-41
2022/10/02 04:59:28;;;;;;;2.85;0.57;;;21.10;57.40;;;;;;5022434;28;20051;-42
2022/10/02 05:02:11;;;;;;;1.70;0.85;;;21.20;57.50;;;;;;4988428;28;20099;-43
2022/10/02 05:05:01;;;;;;;2.65;0.70;;;21.20;57.40;;;;;;5053722;28;20129;-42
2022/10/02 05:07:29;;;;;;;3.08;1.13;;;21.20;57.40;;;;;;5053527;28;20040;-42
2022/10/02 05:10:08;;;;;;;1.13;0.50;;;21.10;57.30;;;;;;5056780;28;20469;-41
2022/10/02 05:12:46;;;;;;;1.75;0.60;;;21.10;57.40;;;;;;5057700;28;20033;-42
2022/10/02 05:15:34;;;;;;;0.95;0.70;;;21.10;57.40;;;;;;5053777;28;20090;-41
2022/10/02 05:18:37;;;;;;;1.17;0.45;;;21.10;57.40;;;;;;5051958;28;20032;-41
2022/10/02 05:21:29;;;;;;;1.25;0.63;;;21.10;57.30;;;;;;5030148;28;20047;-45
2022/10/02 05:24:33;;;;;;;1.23;0.50;;;21.20;57.40;;;;;;5050659;28;20063;-42
2022/10/02 05:27:02;;;;;;;1.70;0.70;;;21.10;57.40;;;;;;5056605;28;20060;-45
2022/10/02 05:29:47;;;;;;;2.40;0.70;;;21.20;57.40;;;;;;5052599;28;20390;-41
2022/10/02 05:32:27;;;;;;;2.60;0.57;;;21.20;57.40;;;;;;5052295;28;20048;-42
2022/10/02 05:35:37;;;;;;;2.75;0.90;;;21.10;57.50;;;;;;5053857;28;20137;-43
2022/10/02 05:38:13;;;;;;;1.65;1.00;;;21.10;57.50;;;;;;5016165;28;20466;-41
2022/10/02 05:40:55;;;;;;;1.35;0.82;;;21.10;57.40;;;;;;5047255;28;20466;-41
2022/10/02 05:43:33;;;;;;;0.98;0.63;;;21.10;57.50;;;;;;5049996;28;20041;-51
2022/10/02 05:46:04;;;;;;;1.50;0.60;;;21.10;57.40;;;;;;5052887;28;20040;-41
2022/10/02 05:48:52;;;;;;;1.13;0.70;;;21.10;57.40;;;;;;5050398;28;20040;-41
2022/10/02 05:51:30;;;;;;;1.95;0.70;;;21.10;57.40;;;;;;5059021;28;20035;-41
2022/10/02 05:54:02;;;;;;;2.85;0.60;;;21.10;57.40;;;;;;5057875;28;20047;-41
2022/10/02 05:56:30;;;;;;;;;;;21.10;57.40;;;;;;5053412;28;20025;-41
2022/10/02 05:59:04;;;;;;;3.45;0.60;;;21.10;57.40;;;;;;5053291;28;20362;-41
2022/10/02 06:01:36;;;;;;;3.35;0.60;;;21.10;57.40;;;;;;5053361;28;20120;-43
2022/10/02 06:04:15;;;;;;;1.55;0.52;;;21.10;57.40;;;;;;5045985;28;20024;-41
2022/10/02 06:06:46;;;;;;;1.23;0.80;;;21.10;57.50;;;;;;5059955;28;20029;-41
2022/10/02 06:09:27;;;;;;;1.87;0.60;;;21.10;57.50;;;;;;5052373;28;20025;-41
2022/10/02 06:12:10;;;;;;;1.30;0.63;;;21.10;57.50;;;;;;5053355;28;20286;-41
2022/10/02 06:14:59;;;;;;;2.42;0.88;;;21.10;57.40;;;;;;5051230;28;20039;-41
2022/10/02 06:17:31;;;;;;;1.48;1.05;;;21.10;57.50;;;;;;5052178;28;20083;-41
2022/10/02 06:20:00;;;;;;;6.38;0.70;;;21.10;57.50;;;;;;5053857;28;20390;-41
2022/10/02 06:22:40;;;;;;;1.40;0.60;;;21.10;57.50;;;;;;5051030;28;20477;-41
2022/10/02 06:25:15;;;;;;;1.13;0.50;;;21.10;57.50;;;;;;5052468;28;20393;-42
2022/10/02 06:27:52;;;;;;;1.38;0.80;;;21.10;57.50;;;;;;5047005;28;20214;-41
2022/10/02 06:30:18;;;;;;;1.48;0.55;;;21.10;57.50;;;;;;5057595;28;20052;-49
2022/10/02 06:33:00;;;;;;;4.45;0.80;;;21.10;57.50;;;;;;5051420;28;20029;-41
2022/10/02 06:35:46;;;;;;;2.10;0.45;;;21.10;57.50;;;;;;5052744;28;20044;-41
2022/10/02 06:38:21;;;;;;;1.02;0.57;;;21.10;57.50;;;;;;5020682;28;20103;-41
2022/10/02 06:40:55;;;;;;;1.73;0.55;;;21.10;57.50;;;;;;5050174;28;20037;-41
2022/10/02 06:43:42;;;;;;;5.90;0.80;;;21.10;57.50;;;;;;5060039;28;20114;-49
2022/10/02 06:46:58;;;;;;;1.30;0.40;;;21.10;57.60;;;;;;5043120;28;20135;-43
2022/10/02 06:49:50;;;;;;;0.93;0.52;;;21.10;57.60;;;;;;5026028;28;20040;-41
2022/10/02 06:52:36;;;;;;;1.02;0.52;;;21.20;57.60;;;;;;5046158;28;20160;-42
2022/10/02 06:55:27;;;;;;;1.83;0.52;;;21.20;58.20;;;;;;5049065;28;20037;-47
2022/10/02 06:58:07;;;;;;;1.45;0.50;;;21.20;57.60;;;;;;5049258;28;20108;-47
2022/10/02 07:00:44;;;;;;;1.45;0.55;;;21.30;57.60;;;;;;5043189;28;20822;-49
2022/10/02 07:03:39;;;;;;;1.13;0.50;;;21.30;57.50;;;;;;5051074;28;20028;-49
2022/10/02 07:06:14;;;;;;;1.27;0.57;;;21.30;57.40;;;;;;5053763;28;20055;-49
2022/10/02 07:09:01;;;;;;;1.92;0.70;;;21.40;57.30;;;;;;5053864;28;20674;-48
2022/10/02 07:11:52;;;;;;;2.15;1.13;;;21.40;57.20;;;;;;5046072;28;20037;-49
2022/10/02 07:14:27;;;;;;;1.88;0.55;;;21.40;57.20;;;;;;5055627;28;20028;-53
2022/10/02 07:16:56;;;;;;;2.05;0.60;;;21.40;57.90;;;;;;5050616;28;20033;-48
2022/10/02 07:19:36;;;;;;;1.58;0.68;;;21.50;57.20;;;;;;5053430;28;20030;-53
2022/10/02 07:22:13;;;;;;;2.25;0.82;;;21.50;57.20;;;;;;5050363;28;20037;-48
2022/10/02 07:25:04;;;;;;;2.00;0.55;;;21.50;57.10;;;;;;5047781;28;20355;-48
2022/10/02 07:27:52;;;;;;;1.08;0.73;;;21.50;57.10;;;;;;5047155;28;20098;-49
2022/10/02 07:30:18;;;;;;;3.13;0.80;;;21.60;57.10;;;;;;5053764;28;20143;-49
2022/10/02 07:32:47;;;;;;;1.30;0.50;;;21.60;57.00;;;;;;5050521;28;20086;-48
2022/10/02 07:35:38;;;;;;;2.33;0.55;;;21.60;57.00;;;;;;5051600;28;20017;-50
2022/10/02 07:38:44;;;;;;;1.48;0.70;;;21.60;57.00;;;;;;5034577;28;20466;-48
2022/10/02 07:41:51;;;;;;;2.70;0.65;;;21.60;57.00;;;;;;5056786;28;20406;-42
2022/10/02 07:45:05;;;;;;;3.33;0.98;;;21.70;56.90;;;;;;5054408;28;20071;-49
2022/10/02 07:48:01;;;;;;;2.97;0.75;;;21.70;56.70;;;;;;5040834;28;20438;-49
2022/10/02 07:50:48;;;;;;;5.82;0.90;;;21.70;56.80;;;;;;5045313;28;20044;-48
2022/10/02 07:53:39;;;;;;;1.92;0.68;;;21.70;56.70;;;;;;5051723;28;20465;-50
2022/10/02 07:56:18;;;;;;;1.52;0.68;;;21.70;56.80;;;;;;5039033;28;20454;-50
2022/10/02 07:59:15;;;;;;;5.68;0.88;;;21.70;56.70;;;;;;5057954;28;20037;-49
2022/10/02 08:01:42;;;;;;;1.42;0.80;;;21.70;56.70;;;;;;5049818;28;20124;-49
2022/10/02 08:04:23;;;;;;;3.45;0.88;;;21.70;56.80;;;;;;5061891;28;20099;-43
2022/10/02 08:06:52;;;;;;;1.50;0.57;;;21.70;56.80;;;;;;5042731;28;20485;-41
2022/10/02 08:09:26;;;;;;;8.18;0.90;;;21.70;56.80;;;;;;5049783;28;20017;-41
2022/10/02 08:11:57;;;;;;;3.92;0.70;;;21.70;56.80;;;;;;5063153;28;20367;-42
2022/10/02 08:14:41;;;;;;;1.17;0.82;;;21.70;56.70;;;;;;5062584;28;20031;-50
2022/10/02 08:17:45;;;;;;;4.38;1.75;;;21.70;56.70;;;;;;5055636;28;20049;-48
2022/10/02 08:20:38;;;;;;;3.03;0.60;;;21.70;56.80;;;;;;4974828;28;20437;-48
2022/10/02 08:23:21;;;;;;;3.78;0.68;;;21.70;56.80;;;;;;5048600;28;20044;-47
2022/10/02 08:26:10;;;;;;;2.30;0.65;;;21.70;56.90;;;;;;5061091;28;20038;-47
2022/10/02 08:28:39;;;;;;;1.98;0.70;;;21.70;56.90;;;;;;5049664;28;20044;-39
2022/10/02 08:31:09;;;;;;;3.80;0.80;;;21.60;57.00;;;;;;5051271;28;20067;-44
2022/10/02 08:33:35;;;;;;;4.47;0.80;;;21.60;57.20;;;;;;5049584;28;20490;-43
2022/10/02 08:36:18;;;;;;;2.00;0.75;;;21.70;57.20;;;;;;5051944;28;20033;-41
2022/10/02 08:38:53;;;;;;;2.50;1.42;;;21.70;57.20;;;;;;5048536;28;20036;-42
2022/10/02 08:41:44;;;;;;;4.72;1.17;;;21.60;57.50;;;;;;5053208;28;20025;-50
2022/10/02 08:44:49;;;;;;;1.65;0.90;;;21.60;57.70;;;;;;5041882;28;20816;-44
2022/10/02 08:48:08;;;;;;;4.75;0.80;;;21.60;57.90;;;;;;5030214;28;20026;-43
2022/10/02 08:50:55;;;;;;;4.38;1.55;;;21.60;58.70;;;;;;4948269;29;20449;-40
2022/10/02 08:53:48;;;;;;;4.05;1.25;;;21.60;58.70;;;;;;5034469;28;20025;-52
2022/10/02 08:56:52;;;;;;;6.32;1.60;;;21.60;58.80;;;;;;5032963;28;20043;-41
2022/10/02 08:59:52;;;;;;;4.60;0.85;;;21.60;59.00;;;;;;5003239;28;20038;-40
2022/10/02 09:02:56;;;;;;;4.25;0.90;;;21.50;59.10;;;;;;5042161;28;20426;-41
2022/10/02 09:05:30;;;;;;;2.88;1.38;;;21.60;59.10;;;;;;5038062;28;20418;-56
2022/10/02 09:08:08;;;;;;;4.28;1.00;;;21.60;59.20;;;;;;5035903;28;20060;-40
2022/10/02 09:10:46;;;;;;;3.28;1.42;;;21.60;59.40;;;;;;5031233;28;20025;-39
2022/10/02 09:13:41;;;;;;;4.90;0.98;;;21.70;59.60;;;;;;5034235;28;20390;-40
2022/10/02 09:16:11;;;;;;;2.75;0.98;;;21.60;59.50;;;;;;5030989;28;20406;-43
2022/10/02 09:19:01;;;;;;;3.90;0.90;;;21.60;59.60;;;;;;5040880;28;20021;-39
2022/10/02 09:21:48;;;;;;;2.67;0.98;;;21.60;59.80;;;;;;5036744;28;20104;-44
2022/10/02 09:24:45;;;;;;;9.70;1.17;;;21.60;59.70;;;;;;5032033;28;20088;-39
2022/10/02 09:27:40;;;;;;;3.50;1.20;;;21.60;59.70;;;;;;5028714;28;20041;-38
2022/10/02 09:30:32;;;;;;;4.50;1.35;;;21.60;59.50;;;;;;5034215;28;20056;-42
2022/10/02 09:33:07;;;;;;;6.72;2.65;;;21.70;59.90;;;;;;5036238;28;20029;-39
2022/10/02 09:35:56;;;;;;;2.22;0.77;;;21.70;60.00;;;;;;5033083;28;20029;-40
2022/10/02 09:38:35;;;;;;;3.08;1.10;;;21.60;60.00;;;;;;5044953;28;20037;-52
2022/10/02 09:41:46;;;;;;;4.25;1.23;;;21.60;60.10;;;;;;5032674;28;20030;-41
2022/10/02 09:44:57;;;;;;;2.58;0.93;;;21.60;59.90;;;;;;5051895;28;20440;-41
2022/10/02 09:48:03;;;;;;;1.85;0.77;;;21.60;59.90;;;;;;5047969;28;20040;-52
2022/10/02 09:50:44;;;;;;;5.38;1.40;;;21.60;59.90;;;;;;5043566;28;20033;-42
2022/10/02 09:53:24;;;;;;;5.82;1.50;;;21.60;60.00;;;;;;5052981;28;20389;-40
2022/10/02 09:55:52;;;;;;;4.05;1.67;;;21.60;60.10;;;;;;5054212;28;20432;-42
2022/10/02 09:58:37;;;;;;;4.20;1.30;;;21.60;60.20;;;;;;5053330;28;20029;-52
2022/10/02 10:01:02;;;;;;;3.40;1.00;;;21.60;60.30;;;;;;5052185;28;20048;-42
2022/10/02 10:03:38;;;;;;;2.83;1.15;;;21.50;60.20;;;;;;5052290;28;20061;-42
2022/10/02 10:06:42;;;;;;;4.78;1.33;;;21.50;60.20;;;;;;5064671;28;20046;-47
2022/10/02 10:09:33;;;;;;;4.68;1.25;;;21.50;60.30;;;;;;5050816;28;20036;-42
2022/10/02 10:12:37;;;;;;;3.40;1.07;;;21.60;60.30;;;;;;5051885;28;20100;-40
2022/10/02 10:15:05;;;;;;;8.30;2.95;;;21.50;60.40;;;;;;5053655;28;20033;-41
2022/10/02 10:17:38;;;;;;;4.07;1.25;;;21.50;60.40;;;;;;5050811;28;20079;-40
2022/10/02 10:20:24;;;;;;;4.10;1.83;;;21.50;60.40;;;;;;5046102;28;20108;-40
2022/10/02 10:23:22;;;;;;;5.07;1.58;;;21.50;60.40;;;;;;5050545;28;20112;-38
2022/10/02 10:26:01;;;;;;;12.43;2.33;;;21.50;60.50;;;;;;5052829;28;20037;-40
2022/10/02 10:29:06;;;;;;;3.60;1.23;;;21.50;60.40;;;;;;5051684;28;20033;-40
2022/10/02 10:31:50;;;;;;;6.43;1.13;;;21.50;60.50;;;;;;5056108;28;20115;-40
2022/10/02 10:34:37;;;;;;;4.90;1.48;;;21.50;60.40;;;;;;5054542;28;20111;-41
2022/10/02 10:40:14;;;;;;;5.45;1.52;;;21.40;60.60;;;;;;5052434;28;20063;-40
2022/10/02 10:43:03;;;;;;;5.65;1.80;;;21.40;60.50;;;;;;5054959;28;20086;-40
2022/10/02 10:46:04;;;;;;;3.88;1.70;;;21.40;60.50;;;;;;5062125;28;20477;-40
2022/10/02 10:48:41;;;;;;;4.82;1.23;;;21.40;60.60;;;;;;5051032;28;20390;-40
2022/10/02 10:51:33;;;;;;;7.65;1.27;;;21.40;60.50;;;;;;5047956;28;20438;-40
2022/10/02 10:54:25;;;;;;;6.50;1.30;;;21.30;60.50;;;;;;5053108;28;20025;-40
2022/10/02 10:56:53;;;;;;;;;;;21.40;60.50;;;;;;5050708;28;20036;-40
2022/10/02 10:59:41;;;;;;;3.97;1.65;;;21.30;60.40;;;;;;5061113;28;19908;-49
2022/10/02 11:02:42;;;;;;;3.60;1.77;;;21.30;60.50;;;;;;5053483;28;20037;-40
2022/10/02 11:05:26;;;;;;;3.33;1.27;;;21.30;60.50;;;;;;5009524;28;20065;-39
2022/10/02 11:08:21;;;;;;;5.00;1.35;;;21.30;60.60;;;;;;5051048;28;20040;-39
2022/10/02 11:11:06;;;;;;;4.15;1.23;;;21.30;60.50;;;;;;5051616;28;20028;-40
2022/10/02 11:13:49;;;;;;;5.57;1.73;;;21.30;60.40;;;;;;5064671;28;20039;-40
2022/10/02 11:16:52;;;;;;;5.70;1.27;;;21.30;60.40;;;;;;5052387;28;20131;-40
2022/10/02 11:19:35;;;;;;;3.58;1.10;;;21.30;60.40;;;;;;5051744;28;20029;-40
2022/10/02 11:22:25;;;;;;;4.20;1.50;;;21.30;60.40;;;;;;5051805;28;20497;-40
2022/10/02 11:25:26;;;;;;;4.07;1.10;;;21.30;60.40;;;;;;5050460;28;20075;-40
2022/10/02 11:28:20;;;;;;;3.88;1.20;;;21.30;60.40;;;;;;4999096;28;20041;-39
2022/10/02 11:31:10;;;;;;;4.53;1.38;;;21.30;60.40;;;;;;5052057;28;20549;-40
2022/10/02 11:34:23;;;;;;;3.60;1.17;;;21.30;60.40;;;;;;5040281;28;20033;-40
2022/10/02 11:36:57;;;;;;;;;;;21.30;60.40;;;;;;5048513;28;20060;-39
2022/10/02 11:39:35;;;;;;;2.30;1.10;;;21.30;60.40;;;;;;5047845;28;19916;-42
2022/10/02 11:42:25;;;;;;;2.88;0.93;;;21.30;60.40;;;;;;5053103;28;20031;-40
2022/10/02 11:44:58;;;;;;;3.17;1.50;;;21.30;60.40;;;;;;5029663;28;20056;-39
2022/10/02 11:47:45;;;;;;;2.67;1.30;;;21.30;60.90;;;;;;5031142;28;20136;-40
2022/10/02 11:50:28;;;;;;;4.03;1.10;;;21.30;60.30;;;;;;5035251;28;20399;-40
2022/10/02 11:53:17;;;;;;;4.28;1.40;;;21.30;60.30;;;;;;5030704;28;20029;-39
2022/10/02 11:56:13;;;;;;;5.32;1.35;;;21.30;60.30;;;;;;5027715;28;20029;-40
2022/10/02 11:58:44;;;;;;;2.40;1.38;;;21.30;60.30;;;;;;5030550;28;20044;-40
2022/10/02 12:01:41;;;;;;;4.22;1.48;;;21.30;60.30;;;;;;5029887;28;20080;-40
2022/10/02 12:04:35;;;;;;;2.42;1.52;;;21.30;60.20;;;;;;5033009;28;20460;-39
2022/10/02 12:07:22;;;;;;;2.13;1.13;;;21.30;60.20;;;;;;5032052;28;20033;-39
2022/10/02 12:10:22;;;;;;;3.05;1.10;;;21.30;60.30;;;;;;5032219;28;20025;-39
2022/10/02 12:13:02;;;;;;;3.20;1.27;;;21.30;60.20;;;;;;5026331;28;20474;-39
2022/10/02 12:16:10;;;;;;;3.28;1.50;;;21.30;60.20;;;;;;5032137;28;20029;-39
2022/10/02 12:19:09;;;;;;;2.08;1.38;;;21.30;60.20;;;;;;5032096;28;20084;-39
2022/10/02 12:27:44;;;;;;;2.70;0.82;;;21.30;60.10;;;;;;5030052;28;20033;-40
2022/10/02 12:30:31;;;;;;;3.33;1.10;;;21.30;60.10;;;;;;5044416;28;20028;-41
2022/10/02 12:33:21;;;;;;;1.70;1.00;;;21.30;60.10;;;;;;5029029;28;20053;-41
2022/10/02 12:36:14;;;;;;;1.63;0.75;;;21.30;60.10;;;;;;5037043;28;20032;-43
2022/10/02 12:38:55;;;;;;;3.33;1.23;;;21.30;60.10;;;;;;5032689;28;20259;-39
2022/10/02 12:41:42;;;;;;;3.33;1.17;;;21.30;60.10;;;;;;5034446;28;20040;-52
2022/10/02 12:44:17;;;;;;;2.92;1.50;;;21.30;60.10;;;;;;5044614;28;20474;-42
2022/10/02 12:46:46;;;;;;;2.25;0.88;;;21.30;60.10;;;;;;5055465;28;20097;-42
2022/10/02 12:49:18;;;;;;;1.98;0.90;;;21.30;60.10;;;;;;5054205;28;20037;-41
2022/10/02 12:52:15;;;;;;;1.52;0.77;;;21.20;60.00;;;;;;5060560;28;20097;-40
2022/10/02 12:55:11;;;;;;;2.63;0.95;;;21.30;60.10;;;;;;5050745;28;20090;-41
2022/10/02 12:58:09;;;;;;;2.15;1.20;;;21.30;60.10;;;;;;5056119;28;20496;-41
2022/10/02 13:01:10;;;;;;;1.23;0.65;;;21.30;60.00;;;;;;5051971;28;20112;-41
2022/10/02 13:03:48;;;;;;;1.90;0.90;;;21.30;60.10;;;;;;5053647;28;20048;-41
2022/10/02 13:06:45;;;;;;;1.58;0.93;;;21.30;60.10;;;;;;5047234;28;20036;-41
2022/10/02 13:09:32;;;;;;;1.33;0.80;;;21.20;60.00;;;;;;5054922;28;20040;-42
2022/10/02 13:12:35;;;;;;;2.55;1.25;;;21.30;60.10;;;;;;5054775;28;20053;-42
2022/10/02 13:15:20;;;;;;;2.03;0.75;;;21.30;60.10;;;;;;5067072;28;20444;-41
2022/10/02 13:17:57;;;;;;;2.55;1.10;;;21.20;60.00;;;;;;5052313;28;20055;-42
2022/10/02 13:21:03;;;;;;;2.08;1.17;;;21.30;60.10;;;;;;5053155;28;20024;-48
2022/10/02 13:23:41;;;;;;;1.45;0.73;;;21.30;60.10;;;;;;5062991;28;20032;-41
2022/10/02 13:26:29;;;;;;;2.15;0.82;;;21.30;60.00;;;;;;5053214;28;20183;-41
2022/10/02 13:29:28;;;;;;;1.70;0.65;;;21.20;60.00;;;;;;5048989;28;20040;-42
2022/10/02 13:32:03;;;;;;;1.77;0.80;;;21.30;60.70;;;;;;5053713;28;20028;-42
2022/10/02 13:34:55;;;;;;;1.70;0.73;;;21.30;60.10;;;;;;5050598;28;20044;-42
2022/10/02 13:37:51;;;;;;;1.55;0.90;;;21.30;60.10;;;;;;5059385;28;20054;-52
2022/10/02 13:40:57;;;;;;;1.83;0.63;;;21.20;60.00;;;;;;5046898;28;20029;-42
2022/10/02 13:43:55;;;;;;;1.60;0.70;;;21.20;60.00;;;;;;5047736;28;20049;-52
2022/10/02 13:46:58;;;;;;;1.23;0.70;;;21.20;60.00;;;;;;5048893;28;20122;-52
2022/10/02 13:49:52;;;;;;;2.33;0.90;;;21.20;60.00;;;;;;5052677;28;20044;-42
2022/10/02 13:52:28;;;;;;;1.08;0.60;;;21.20;60.00;;;;;;5050920;28;20385;-50
2022/10/02 13:55:01;;;;;;;1.95;0.80;;;21.20;60.00;;;;;;5062404;28;20033;-41
2022/10/02 13:57:41;;;;;;;0.68;0.60;;;21.20;60.00;;;;;;5052335;28;20025;-42
2022/10/02 14:00:13;;;;;;;1.23;0.73;;;21.30;60.10;;;;;;5061300;28;20029;-40
2022/10/02 14:02:45;;;;;;;0.93;0.55;;;21.20;60.00;;;;;;5060470;28;20025;-39
2022/10/02 14:05:37;;;;;;;1.70;0.70;;;21.20;60.00;;;;;;5052948;28;20559;-42
2022/10/02 14:08:14;;;;;;;2.00;0.82;;;21.30;60.00;;;;;;5039510;28;20486;-40
2022/10/02 14:10:58;;;;;;;1.20;0.60;;;21.20;60.00;;;;;;5057134;28;20605;-41
2022/10/02 14:13:39;;;;;;;1.35;0.60;;;21.20;60.00;;;;;;5065424;28;20031;-52
2022/10/02 14:16:36;;;;;;;1.85;0.70;;;21.20;60.20;;;;;;5053508;28;20119;-39